sensor_id;sensor_type;location;lat;lon;timestamp;P1;durP1;ratioP1;P2;durP2;ratioP2
47053;SDS011;32811;52.382;5.270;2022-08-21T00:01:33;6.32;;;2.55;;
47053;SDS011;32811;52.382;5.270;2022-08-21T00:04:07;4.57;;;2.65;;
47053;SDS011;32811;52.382;5.270;2022-08-21T00:06:35;6.90;;;2.72;;
47053;SDS011;32811;52.382;5.270;2022-08-21T00:09:04;5.28;;;2.72;;
47053;SDS011;32811;52.382;5.270;2022-08-21T00:11:34;7.43;;;2.95;;
47053;SDS011;32811;52.382;5.270;2022-08-21T00:14:02;6.55;;;3.10;;
47053;SDS011;32811;52.382;5.270;2022-08-21T00:16:29;3.75;;;2.65;;
47053;SDS011;32811;52.382;5.270;2022-08-21T00:18:55;5.72;;;2.35;;
47053;SDS011;32811;52.382;5.270;2022-08-21T00:21:22;4.22;;;2.10;;
47053;SDS011;32811;52.382;5.270;2022-08-21T00:23:49;4.05;;;2.60;;
47053;SDS011;32811;52.382;5.270;2022-08-21T00:26:15;3.70;;;2.33;;
47053;SDS011;32811;52.382;5.270;2022-08-21T00:28:42;4.72;;;3.38;;
47053;SDS011;32811;52.382;5.270;2022-08-21T00:31:09;4.85;;;3.22;;
47053;SDS011;32811;52.382;5.270;2022-08-21T00:33:35;4.97;;;2.25;;
47053;SDS011;32811;52.382;5.270;2022-08-21T00:36:02;4.97;;;2.58;;
47053;SDS011;32811;52.382;5.270;2022-08-21T00:38:29;4.68;;;2.40;;
47053;SDS011;32811;52.382;5.270;2022-08-21T00:40:57;5.60;;;3.00;;
47053;SDS011;32811;52.382;5.270;2022-08-21T00:43:45;6.40;;;2.60;;
47053;SDS011;32811;52.382;5.270;2022-08-21T00:46:12;4.88;;;2.78;;
47053;SDS011;32811;52.382;5.270;2022-08-21T00:48:39;5.05;;;2.30;;
47053;SDS011;32811;52.382;5.270;2022-08-21T00:51:07;4.93;;;2.63;;
47053;SDS011;32811;52.382;5.270;2022-08-21T00:53:37;4.18;;;2.90;;
47053;SDS011;32811;52.382;5.270;2022-08-21T00:56:07;4.32;;;2.28;;
47053;SDS011;32811;52.382;5.270;2022-08-21T00:58:37;4.25;;;2.42;;
47053;SDS011;32811;52.382;5.270;2022-08-21T01:01:09;5.10;;;2.50;;
47053;SDS011;32811;52.382;5.270;2022-08-21T01:03:36;5.55;;;2.55;;
47053;SDS011;32811;52.382;5.270;2022-08-21T01:06:09;6.68;;;2.75;;
47053;SDS011;32811;52.382;5.270;2022-08-21T01:08:35;5.90;;;2.63;;
47053;SDS011;32811;52.382;5.270;2022-08-21T01:11:11;3.55;;;2.58;;
47053;SDS011;32811;52.382;5.270;2022-08-21T01:13:38;5.95;;;2.50;;
47053;SDS011;32811;52.382;5.270;2022-08-21T01:16:12;5.50;;;2.65;;
47053;SDS011;32811;52.382;5.270;2022-08-21T01:18:41;5.80;;;2.65;;
47053;SDS011;32811;52.382;5.270;2022-08-21T01:21:10;5.13;;;3.05;;
47053;SDS011;32811;52.382;5.270;2022-08-21T01:23:45;5.03;;;2.20;;
47053;SDS011;32811;52.382;5.270;2022-08-21T01:26:16;3.80;;;2.17;;
47053;SDS011;32811;52.382;5.270;2022-08-21T01:28:45;4.05;;;2.20;;
47053;SDS011;32811;52.382;5.270;2022-08-21T01:34:08;3.28;;;1.92;;
47053;SDS011;32811;52.382;5.270;2022-08-21T01:36:36;5.65;;;2.30;;
47053;SDS011;32811;52.382;5.270;2022-08-21T01:39:03;4.88;;;1.88;;
47053;SDS011;32811;52.382;5.270;2022-08-21T01:41:30;3.75;;;1.60;;
47053;SDS011;32811;52.382;5.270;2022-08-21T01:43:57;4.57;;;2.75;;
47053;SDS011;32811;52.382;5.270;2022-08-21T01:46:23;5.30;;;1.95;;
47053;SDS011;32811;52.382;5.270;2022-08-21T01:48:50;4.28;;;1.63;;
47053;SDS011;32811;52.382;5.270;2022-08-21T01:51:17;4.68;;;1.60;;
47053;SDS011;32811;52.382;5.270;2022-08-21T01:53:43;7.65;;;2.10;;
47053;SDS011;32811;52.382;5.270;2022-08-21T01:56:11;4.93;;;2.45;;
47053;SDS011;32811;52.382;5.270;2022-08-21T01:58:40;3.33;;;1.95;;
47053;SDS011;32811;52.382;5.270;2022-08-21T02:01:08;3.25;;;1.73;;
47053;SDS011;32811;52.382;5.270;2022-08-21T02:03:36;5.75;;;1.45;;
47053;SDS011;32811;52.382;5.270;2022-08-21T02:06:04;4.45;;;1.60;;
47053;SDS011;32811;52.382;5.270;2022-08-21T02:08:32;4.13;;;1.95;;
47053;SDS011;32811;52.382;5.270;2022-08-21T02:10:59;4.25;;;1.60;;
47053;SDS011;32811;52.382;5.270;2022-08-21T02:13:26;4.40;;;2.17;;
47053;SDS011;32811;52.382;5.270;2022-08-21T02:15:53;4.38;;;2.28;;
47053;SDS011;32811;52.382;5.270;2022-08-21T02:18:19;3.35;;;1.40;;
47053;SDS011;32811;52.382;5.270;2022-08-21T02:20:47;3.85;;;2.30;;
47053;SDS011;32811;52.382;5.270;2022-08-21T02:23:22;4.97;;;1.83;;
47053;SDS011;32811;52.382;5.270;2022-08-21T02:25:52;2.75;;;1.83;;
47053;SDS011;32811;52.382;5.270;2022-08-21T02:28:18;3.30;;;1.50;;
47053;SDS011;32811;52.382;5.270;2022-08-21T02:30:46;4.18;;;1.33;;
47053;SDS011;32811;52.382;5.270;2022-08-21T02:33:13;4.00;;;1.70;;
47053;SDS011;32811;52.382;5.270;2022-08-21T02:35:42;5.78;;;2.90;;
47053;SDS011;32811;52.382;5.270;2022-08-21T02:38:11;3.08;;;1.70;;
47053;SDS011;32811;52.382;5.270;2022-08-21T02:40:41;2.95;;;1.55;;
47053;SDS011;32811;52.382;5.270;2022-08-21T02:43:13;5.55;;;1.90;;
47053;SDS011;32811;52.382;5.270;2022-08-21T02:45:41;3.92;;;1.95;;
47053;SDS011;32811;52.382;5.270;2022-08-21T02:48:10;5.53;;;1.95;;
47053;SDS011;32811;52.382;5.270;2022-08-21T02:50:42;3.75;;;1.63;;
47053;SDS011;32811;52.382;5.270;2022-08-21T02:53:15;5.00;;;1.83;;
47053;SDS011;32811;52.382;5.270;2022-08-21T02:55:46;4.10;;;1.50;;
47053;SDS011;32811;52.382;5.270;2022-08-21T02:58:15;4.65;;;1.95;;
47053;SDS011;32811;52.382;5.270;2022-08-21T03:00:43;4.07;;;1.58;;
47053;SDS011;32811;52.382;5.270;2022-08-21T03:03:11;4.50;;;1.65;;
47053;SDS011;32811;52.382;5.270;2022-08-21T03:05:38;4.03;;;1.75;;
47053;SDS011;32811;52.382;5.270;2022-08-21T03:08:06;4.53;;;1.65;;
47053;SDS011;32811;52.382;5.270;2022-08-21T03:10:40;1.80;;;1.35;;
47053;SDS011;32811;52.382;5.270;2022-08-21T03:13:09;4.28;;;1.75;;
47053;SDS011;32811;52.382;5.270;2022-08-21T03:15:36;3.47;;;1.33;;
47053;SDS011;32811;52.382;5.270;2022-08-21T03:18:04;3.25;;;1.38;;
47053;SDS011;32811;52.382;5.270;2022-08-21T03:20:31;2.63;;;1.77;;
47053;SDS011;32811;52.382;5.270;2022-08-21T03:22:59;2.17;;;1.65;;
47053;SDS011;32811;52.382;5.270;2022-08-21T03:25:27;5.70;;;1.77;;
47053;SDS011;32811;52.382;5.270;2022-08-21T03:28:07;5.15;;;1.70;;
47053;SDS011;32811;52.382;5.270;2022-08-21T03:30:39;4.57;;;1.80;;
47053;SDS011;32811;52.382;5.270;2022-08-21T03:33:10;4.40;;;1.67;;
47053;SDS011;32811;52.382;5.270;2022-08-21T03:35:41;2.58;;;1.30;;
47053;SDS011;32811;52.382;5.270;2022-08-21T03:38:09;3.05;;;1.80;;
47053;SDS011;32811;52.382;5.270;2022-08-21T03:40:36;4.65;;;1.23;;
47053;SDS011;32811;52.382;5.270;2022-08-21T03:43:02;3.33;;;1.52;;
47053;SDS011;32811;52.382;5.270;2022-08-21T03:45:29;5.47;;;1.70;;
47053;SDS011;32811;52.382;5.270;2022-08-21T03:48:00;3.25;;;1.80;;
47053;SDS011;32811;52.382;5.270;2022-08-21T03:50:30;4.43;;;1.80;;
47053;SDS011;32811;52.382;5.270;2022-08-21T03:53:01;3.60;;;1.73;;
47053;SDS011;32811;52.382;5.270;2022-08-21T03:55:28;5.05;;;1.55;;
47053;SDS011;32811;52.382;5.270;2022-08-21T03:57:54;3.55;;;1.70;;
47053;SDS011;32811;52.382;5.270;2022-08-21T04:00:22;6.38;;;2.20;;
47053;SDS011;32811;52.382;5.270;2022-08-21T04:02:49;3.47;;;1.40;;
47053;SDS011;32811;52.382;5.270;2022-08-21T04:05:17;3.83;;;1.50;;
47053;SDS011;32811;52.382;5.270;2022-08-21T04:08:00;3.92;;;1.55;;
47053;SDS011;32811;52.382;5.270;2022-08-21T04:10:29;4.55;;;1.45;;
47053;SDS011;32811;52.382;5.270;2022-08-21T04:12:58;6.05;;;1.95;;
47053;SDS011;32811;52.382;5.270;2022-08-21T04:15:25;7.00;;;2.15;;
47053;SDS011;32811;52.382;5.270;2022-08-21T04:17:52;4.03;;;1.58;;
47053;SDS011;32811;52.382;5.270;2022-08-21T04:20:19;3.92;;;1.65;;
47053;SDS011;32811;52.382;5.270;2022-08-21T04:22:47;8.80;;;2.28;;
47053;SDS011;32811;52.382;5.270;2022-08-21T04:25:18;6.63;;;1.98;;
47053;SDS011;32811;52.382;5.270;2022-08-21T04:27:46;2.92;;;1.67;;
47053;SDS011;32811;52.382;5.270;2022-08-21T04:30:13;3.25;;;1.67;;
47053;SDS011;32811;52.382;5.270;2022-08-21T04:32:42;4.68;;;1.85;;
47053;SDS011;32811;52.382;5.270;2022-08-21T04:35:10;6.75;;;2.25;;
47053;SDS011;32811;52.382;5.270;2022-08-21T04:37:37;2.97;;;1.33;;
47053;SDS011;32811;52.382;5.270;2022-08-21T04:40:08;2.80;;;1.48;;
47053;SDS011;32811;52.382;5.270;2022-08-21T04:42:46;3.75;;;1.55;;
47053;SDS011;32811;52.382;5.270;2022-08-21T04:45:32;4.22;;;2.17;;
47053;SDS011;32811;52.382;5.270;2022-08-21T04:48:04;7.80;;;1.70;;
47053;SDS011;32811;52.382;5.270;2022-08-21T04:50:47;4.95;;;1.60;;
47053;SDS011;32811;52.382;5.270;2022-08-21T04:53:51;4.00;;;1.70;;
47053;SDS011;32811;52.382;5.270;2022-08-21T04:56:22;4.38;;;2.05;;
47053;SDS011;32811;52.382;5.270;2022-08-21T04:58:53;5.20;;;3.22;;
47053;SDS011;32811;52.382;5.270;2022-08-21T05:01:25;4.43;;;2.00;;
47053;SDS011;32811;52.382;5.270;2022-08-21T05:03:55;6.07;;;1.98;;
47053;SDS011;32811;52.382;5.270;2022-08-21T05:06:24;5.63;;;2.10;;
47053;SDS011;32811;52.382;5.270;2022-08-21T05:08:52;5.07;;;2.25;;
47053;SDS011;32811;52.382;5.270;2022-08-21T05:13:54;6.20;;;2.10;;
47053;SDS011;32811;52.382;5.270;2022-08-21T05:16:22;6.15;;;2.60;;
47053;SDS011;32811;52.382;5.270;2022-08-21T05:19:03;6.35;;;2.75;;
47053;SDS011;32811;52.382;5.270;2022-08-21T05:21:33;11.50;;;2.67;;
47053;SDS011;32811;52.382;5.270;2022-08-21T05:24:01;8.20;;;2.33;;
47053;SDS011;32811;52.382;5.270;2022-08-21T05:26:28;7.47;;;2.15;;
47053;SDS011;32811;52.382;5.270;2022-08-21T05:28:55;4.65;;;2.13;;
47053;SDS011;32811;52.382;5.270;2022-08-21T05:31:23;5.55;;;2.45;;
47053;SDS011;32811;52.382;5.270;2022-08-21T05:33:49;15.35;;;3.13;;
47053;SDS011;32811;52.382;5.270;2022-08-21T05:36:17;5.15;;;2.72;;
47053;SDS011;32811;52.382;5.270;2022-08-21T05:38:44;7.50;;;2.30;;
47053;SDS011;32811;52.382;5.270;2022-08-21T05:41:11;5.53;;;1.80;;
47053;SDS011;32811;52.382;5.270;2022-08-21T05:43:38;6.90;;;1.98;;
47053;SDS011;32811;52.382;5.270;2022-08-21T05:46:06;8.30;;;2.63;;
47053;SDS011;32811;52.382;5.270;2022-08-21T05:48:34;8.45;;;2.30;;
47053;SDS011;32811;52.382;5.270;2022-08-21T05:51:05;7.88;;;2.20;;
47053;SDS011;32811;52.382;5.270;2022-08-21T05:53:33;5.00;;;1.63;;
47053;SDS011;32811;52.382;5.270;2022-08-21T05:55:59;6.45;;;1.88;;
47053;SDS011;32811;52.382;5.270;2022-08-21T05:58:26;5.38;;;1.73;;
47053;SDS011;32811;52.382;5.270;2022-08-21T06:00:53;6.65;;;2.03;;
47053;SDS011;32811;52.382;5.270;2022-08-21T06:03:21;8.45;;;2.22;;
47053;SDS011;32811;52.382;5.270;2022-08-21T06:05:49;7.05;;;2.83;;
47053;SDS011;32811;52.382;5.270;2022-08-21T06:08:17;11.27;;;2.25;;
47053;SDS011;32811;52.382;5.270;2022-08-21T06:10:44;7.20;;;1.90;;
47053;SDS011;32811;52.382;5.270;2022-08-21T06:13:12;7.05;;;1.98;;
47053;SDS011;32811;52.382;5.270;2022-08-21T06:15:40;7.07;;;2.17;;
47053;SDS011;32811;52.382;5.270;2022-08-21T06:18:07;6.85;;;2.55;;
47053;SDS011;32811;52.382;5.270;2022-08-21T06:20:34;8.27;;;1.50;;
47053;SDS011;32811;52.382;5.270;2022-08-21T06:23:01;9.30;;;1.92;;
47053;SDS011;32811;52.382;5.270;2022-08-21T06:25:28;8.25;;;2.10;;
47053;SDS011;32811;52.382;5.270;2022-08-21T06:28:03;6.10;;;1.58;;
47053;SDS011;32811;52.382;5.270;2022-08-21T06:30:31;7.97;;;2.17;;
47053;SDS011;32811;52.382;5.270;2022-08-21T06:32:58;9.30;;;2.50;;
47053;SDS011;32811;52.382;5.270;2022-08-21T06:35:26;5.63;;;1.65;;
47053;SDS011;32811;52.382;5.270;2022-08-21T06:37:55;8.73;;;2.05;;
47053;SDS011;32811;52.382;5.270;2022-08-21T06:40:28;10.35;;;2.78;;
47053;SDS011;32811;52.382;5.270;2022-08-21T06:43:10;8.52;;;2.60;;
47053;SDS011;32811;52.382;5.270;2022-08-21T06:45:40;10.80;;;1.60;;
47053;SDS011;32811;52.382;5.270;2022-08-21T06:48:07;9.50;;;2.55;;
47053;SDS011;32811;52.382;5.270;2022-08-21T06:50:34;11.57;;;4.20;;
47053;SDS011;32811;52.382;5.270;2022-08-21T06:53:09;9.82;;;3.33;;
47053;SDS011;32811;52.382;5.270;2022-08-21T06:55:38;13.15;;;2.70;;
47053;SDS011;32811;52.382;5.270;2022-08-21T06:58:05;11.30;;;3.20;;
47053;SDS011;32811;52.382;5.270;2022-08-21T07:00:32;6.32;;;2.13;;
47053;SDS011;32811;52.382;5.270;2022-08-21T07:02:59;10.82;;;2.13;;
47053;SDS011;32811;52.382;5.270;2022-08-21T07:05:27;12.23;;;2.58;;
47053;SDS011;32811;52.382;5.270;2022-08-21T07:07:55;7.07;;;1.95;;
47053;SDS011;32811;52.382;5.270;2022-08-21T07:10:24;15.43;;;2.95;;
47053;SDS011;32811;52.382;5.270;2022-08-21T07:12:52;12.80;;;2.03;;
47053;SDS011;32811;52.382;5.270;2022-08-21T07:17:55;10.85;;;2.60;;
47053;SDS011;32811;52.382;5.270;2022-08-21T07:20:23;11.32;;;2.45;;
47053;SDS011;32811;52.382;5.270;2022-08-21T07:22:49;10.70;;;2.47;;
47053;SDS011;32811;52.382;5.270;2022-08-21T07:25:17;11.20;;;2.40;;
47053;SDS011;32811;52.382;5.270;2022-08-21T07:27:43;8.52;;;1.73;;
47053;SDS011;32811;52.382;5.270;2022-08-21T07:30:10;10.82;;;2.72;;
47053;SDS011;32811;52.382;5.270;2022-08-21T07:32:37;12.80;;;3.92;;
47053;SDS011;32811;52.382;5.270;2022-08-21T07:35:03;7.90;;;2.15;;
47053;SDS011;32811;52.382;5.270;2022-08-21T07:37:30;9.38;;;2.50;;
47053;SDS011;32811;52.382;5.270;2022-08-21T07:39:57;13.57;;;2.67;;
47053;SDS011;32811;52.382;5.270;2022-08-21T07:42:23;8.27;;;2.33;;
47053;SDS011;32811;52.382;5.270;2022-08-21T07:44:50;11.80;;;2.95;;
47053;SDS011;32811;52.382;5.270;2022-08-21T07:47:21;7.53;;;1.67;;
47053;SDS011;32811;52.382;5.270;2022-08-21T07:50:08;9.43;;;2.50;;
47053;SDS011;32811;52.382;5.270;2022-08-21T07:52:37;11.13;;;1.67;;
47053;SDS011;32811;52.382;5.270;2022-08-21T07:55:05;7.63;;;2.72;;
47053;SDS011;32811;52.382;5.270;2022-08-21T07:57:33;9.90;;;2.20;;
47053;SDS011;32811;52.382;5.270;2022-08-21T07:59:59;8.90;;;2.08;;
47053;SDS011;32811;52.382;5.270;2022-08-21T08:02:27;7.65;;;2.35;;
47053;SDS011;32811;52.382;5.270;2022-08-21T08:04:58;9.18;;;3.03;;
47053;SDS011;32811;52.382;5.270;2022-08-21T08:07:27;6.45;;;1.73;;
47053;SDS011;32811;52.382;5.270;2022-08-21T08:09:53;8.90;;;2.33;;
47053;SDS011;32811;52.382;5.270;2022-08-21T08:12:20;8.05;;;2.33;;
47053;SDS011;32811;52.382;5.270;2022-08-21T08:14:47;11.95;;;2.10;;
47053;SDS011;32811;52.382;5.270;2022-08-21T08:17:13;9.95;;;2.83;;
47053;SDS011;32811;52.382;5.270;2022-08-21T08:19:40;11.68;;;2.40;;
47053;SDS011;32811;52.382;5.270;2022-08-21T08:22:14;5.95;;;2.40;;
47053;SDS011;32811;52.382;5.270;2022-08-21T08:24:50;7.28;;;1.77;;
47053;SDS011;32811;52.382;5.270;2022-08-21T08:27:18;10.10;;;2.17;;
47053;SDS011;32811;52.382;5.270;2022-08-21T08:29:44;11.85;;;2.28;;
47053;SDS011;32811;52.382;5.270;2022-08-21T08:32:11;9.98;;;2.70;;
47053;SDS011;32811;52.382;5.270;2022-08-21T08:34:38;8.65;;;2.15;;
47053;SDS011;32811;52.382;5.270;2022-08-21T08:37:06;9.07;;;2.70;;
47053;SDS011;32811;52.382;5.270;2022-08-21T08:39:35;10.75;;;2.60;;
47053;SDS011;32811;52.382;5.270;2022-08-21T08:45:04;9.75;;;2.42;;
47053;SDS011;32811;52.382;5.270;2022-08-21T08:47:36;13.18;;;3.28;;
47053;SDS011;32811;52.382;5.270;2022-08-21T08:52:40;11.88;;;2.50;;
47053;SDS011;32811;52.382;5.270;2022-08-21T08:55:13;13.93;;;2.20;;
47053;SDS011;32811;52.382;5.270;2022-08-21T08:57:44;11.02;;;2.85;;
47053;SDS011;32811;52.382;5.270;2022-08-21T09:00:16;10.65;;;3.00;;
47053;SDS011;32811;52.382;5.270;2022-08-21T09:02:45;9.63;;;2.25;;
47053;SDS011;32811;52.382;5.270;2022-08-21T09:05:21;9.88;;;1.75;;
47053;SDS011;32811;52.382;5.270;2022-08-21T09:13:24;5.53;;;1.50;;
47053;SDS011;32811;52.382;5.270;2022-08-21T09:25:23;12.30;;;2.78;;
47053;SDS011;32811;52.382;5.270;2022-08-21T09:27:57;10.50;;;2.60;;
47053;SDS011;32811;52.382;5.270;2022-08-21T09:30:26;10.13;;;2.58;;
47053;SDS011;32811;52.382;5.270;2022-08-21T09:32:55;10.68;;;2.78;;
47053;SDS011;32811;52.382;5.270;2022-08-21T09:35:23;9.80;;;1.98;;
47053;SDS011;32811;52.382;5.270;2022-08-21T09:40:33;16.73;;;2.17;;
47053;SDS011;32811;52.382;5.270;2022-08-21T09:45:37;12.18;;;2.42;;
47053;SDS011;32811;52.382;5.270;2022-08-21T09:50:37;14.80;;;2.80;;
47053;SDS011;32811;52.382;5.270;2022-08-21T09:53:03;9.13;;;2.28;;
47053;SDS011;32811;52.382;5.270;2022-08-21T09:58:19;7.40;;;1.77;;
47053;SDS011;32811;52.382;5.270;2022-08-21T10:00:56;8.85;;;2.42;;
47053;SDS011;32811;52.382;5.270;2022-08-21T10:03:25;7.63;;;2.15;;
47053;SDS011;32811;52.382;5.270;2022-08-21T10:08:22;11.88;;;2.55;;
47053;SDS011;32811;52.382;5.270;2022-08-21T10:10:52;10.65;;;1.52;;
47053;SDS011;32811;52.382;5.270;2022-08-21T10:13:25;7.13;;;1.90;;
47053;SDS011;32811;52.382;5.270;2022-08-21T10:19:21;7.95;;;1.35;;
47053;SDS011;32811;52.382;5.270;2022-08-21T10:22:15;7.65;;;1.40;;
47053;SDS011;32811;52.382;5.270;2022-08-21T10:24:52;7.03;;;1.85;;
47053;SDS011;32811;52.382;5.270;2022-08-21T10:39:05;11.45;;;2.22;;
47053;SDS011;32811;52.382;5.270;2022-08-21T10:47:05;10.00;;;1.98;;
47053;SDS011;32811;52.382;5.270;2022-08-21T10:50:17;5.25;;;1.13;;
47053;SDS011;32811;52.382;5.270;2022-08-21T10:52:44;8.73;;;2.45;;
47053;SDS011;32811;52.382;5.270;2022-08-21T10:55:22;7.28;;;1.92;;
47053;SDS011;32811;52.382;5.270;2022-08-21T11:00:24;6.75;;;1.52;;
47053;SDS011;32811;52.382;5.270;2022-08-21T11:03:07;5.20;;;1.55;;
47053;SDS011;32811;52.382;5.270;2022-08-21T11:05:47;6.50;;;1.33;;
47053;SDS011;32811;52.382;5.270;2022-08-21T11:11:04;6.15;;;1.55;;
47053;SDS011;32811;52.382;5.270;2022-08-21T11:13:40;5.22;;;1.13;;
47053;SDS011;32811;52.382;5.270;2022-08-21T11:16:28;11.23;;;3.30;;
47053;SDS011;32811;52.382;5.270;2022-08-21T11:19:07;5.35;;;1.13;;
47053;SDS011;32811;52.382;5.270;2022-08-21T11:24:57;4.75;;;1.10;;
47053;SDS011;32811;52.382;5.270;2022-08-21T11:27:33;6.55;;;1.35;;
47053;SDS011;32811;52.382;5.270;2022-08-21T11:30:06;6.70;;;2.05;;
47053;SDS011;32811;52.382;5.270;2022-08-21T11:35:47;8.00;;;2.05;;
47053;SDS011;32811;52.382;5.270;2022-08-21T11:38:39;3.92;;;1.00;;
47053;SDS011;32811;52.382;5.270;2022-08-21T11:43:48;7.75;;;1.38;;
47053;SDS011;32811;52.382;5.270;2022-08-21T11:46:32;4.72;;;1.35;;
47053;SDS011;32811;52.382;5.270;2022-08-21T11:52:02;5.28;;;1.13;;
47053;SDS011;32811;52.382;5.270;2022-08-21T11:57:20;4.80;;;1.15;;
47053;SDS011;32811;52.382;5.270;2022-08-21T12:00:11;6.57;;;1.00;;
47053;SDS011;32811;52.382;5.270;2022-08-21T12:02:44;9.45;;;1.42;;
47053;SDS011;32811;52.382;5.270;2022-08-21T12:05:25;8.60;;;1.80;;
47053;SDS011;32811;52.382;5.270;2022-08-21T12:08:00;3.88;;;1.17;;
47053;SDS011;32811;52.382;5.270;2022-08-21T12:10:37;4.88;;;1.27;;
47053;SDS011;32811;52.382;5.270;2022-08-21T12:13:07;2.78;;;0.93;;
47053;SDS011;32811;52.382;5.270;2022-08-21T12:16:05;10.00;;;1.08;;
47053;SDS011;32811;52.382;5.270;2022-08-21T12:18:41;6.10;;;1.40;;
47053;SDS011;32811;52.382;5.270;2022-08-21T12:21:23;4.95;;;0.80;;
47053;SDS011;32811;52.382;5.270;2022-08-21T12:24:15;4.80;;;0.80;;
47053;SDS011;32811;52.382;5.270;2022-08-21T12:27:21;4.15;;;0.93;;
47053;SDS011;32811;52.382;5.270;2022-08-21T12:29:38;5.15;;;1.33;;
47053;SDS011;32811;52.382;5.270;2022-08-21T12:34:49;6.78;;;1.13;;
47053;SDS011;32811;52.382;5.270;2022-08-21T12:37:39;5.72;;;0.95;;
47053;SDS011;32811;52.382;5.270;2022-08-21T12:42:52;3.78;;;0.82;;
47053;SDS011;32811;52.382;5.270;2022-08-21T12:48:07;4.68;;;1.20;;
47053;SDS011;32811;52.382;5.270;2022-08-21T12:50:44;6.45;;;0.90;;
47053;SDS011;32811;52.382;5.270;2022-08-21T12:53:26;6.78;;;1.17;;
47053;SDS011;32811;52.382;5.270;2022-08-21T12:56:13;4.53;;;1.00;;
47053;SDS011;32811;52.382;5.270;2022-08-21T12:58:46;4.00;;;0.73;;
47053;SDS011;32811;52.382;5.270;2022-08-21T13:01:17;4.50;;;1.30;;
47053;SDS011;32811;52.382;5.270;2022-08-21T13:03:50;7.00;;;1.25;;
47053;SDS011;32811;52.382;5.270;2022-08-21T13:09:14;5.78;;;0.95;;
47053;SDS011;32811;52.382;5.270;2022-08-21T13:11:46;3.30;;;0.77;;
47053;SDS011;32811;52.382;5.270;2022-08-21T13:17:04;7.70;;;1.23;;
47053;SDS011;32811;52.382;5.270;2022-08-21T13:19:33;5.47;;;1.00;;
47053;SDS011;32811;52.382;5.270;2022-08-21T13:22:00;6.15;;;1.40;;
47053;SDS011;32811;52.382;5.270;2022-08-21T13:24:49;6.75;;;1.38;;
47053;SDS011;32811;52.382;5.270;2022-08-21T13:27:29;2.47;;;0.75;;
47053;SDS011;32811;52.382;5.270;2022-08-21T13:30:03;4.53;;;0.93;;
47053;SDS011;32811;52.382;5.270;2022-08-21T13:34:59;5.80;;;1.15;;
47053;SDS011;32811;52.382;5.270;2022-08-21T13:37:39;4.85;;;1.20;;
47053;SDS011;32811;52.382;5.270;2022-08-21T13:40:09;4.13;;;1.50;;
47053;SDS011;32811;52.382;5.270;2022-08-21T13:42:42;4.13;;;1.30;;
47053;SDS011;32811;52.382;5.270;2022-08-21T13:45:14;4.78;;;0.90;;
47053;SDS011;32811;52.382;5.270;2022-08-21T13:48:01;4.20;;;1.55;;
47053;SDS011;32811;52.382;5.270;2022-08-21T13:50:32;8.55;;;1.10;;
47053;SDS011;32811;52.382;5.270;2022-08-21T13:53:07;5.63;;;1.00;;
47053;SDS011;32811;52.382;5.270;2022-08-21T13:55:48;5.18;;;0.77;;
47053;SDS011;32811;52.382;5.270;2022-08-21T13:58:24;7.65;;;1.80;;
47053;SDS011;32811;52.382;5.270;2022-08-21T14:00:53;4.03;;;1.00;;
47053;SDS011;32811;52.382;5.270;2022-08-21T14:03:32;6.32;;;1.13;;
47053;SDS011;32811;52.382;5.270;2022-08-21T14:06:01;4.85;;;1.02;;
47053;SDS011;32811;52.382;5.270;2022-08-21T14:11:00;4.35;;;1.10;;
47053;SDS011;32811;52.382;5.270;2022-08-21T14:13:36;5.20;;;1.08;;
47053;SDS011;32811;52.382;5.270;2022-08-21T14:18:45;3.10;;;0.70;;
47053;SDS011;32811;52.382;5.270;2022-08-21T14:21:13;10.20;;;1.13;;
47053;SDS011;32811;52.382;5.270;2022-08-21T14:23:40;4.07;;;0.88;;
47053;SDS011;32811;52.382;5.270;2022-08-21T14:26:07;7.03;;;1.08;;
47053;SDS011;32811;52.382;5.270;2022-08-21T14:28:39;4.57;;;1.15;;
47053;SDS011;32811;52.382;5.270;2022-08-21T14:31:14;6.65;;;0.93;;
47053;SDS011;32811;52.382;5.270;2022-08-21T14:33:47;3.63;;;1.00;;
47053;SDS011;32811;52.382;5.270;2022-08-21T14:36:14;4.32;;;1.13;;
47053;SDS011;32811;52.382;5.270;2022-08-21T14:38:40;5.55;;;1.45;;
47053;SDS011;32811;52.382;5.270;2022-08-21T14:41:18;6.15;;;1.08;;
47053;SDS011;32811;52.382;5.270;2022-08-21T14:43:50;3.40;;;0.80;;
47053;SDS011;32811;52.382;5.270;2022-08-21T14:46:33;4.00;;;1.00;;
47053;SDS011;32811;52.382;5.270;2022-08-21T14:49:11;3.75;;;1.10;;
47053;SDS011;32811;52.382;5.270;2022-08-21T14:51:38;12.70;;;1.60;;
47053;SDS011;32811;52.382;5.270;2022-08-21T14:54:19;5.10;;;1.42;;
47053;SDS011;32811;52.382;5.270;2022-08-21T14:56:53;5.40;;;0.90;;
47053;SDS011;32811;52.382;5.270;2022-08-21T14:59:21;5.28;;;1.30;;
47053;SDS011;32811;52.382;5.270;2022-08-21T15:01:47;4.88;;;0.82;;
47053;SDS011;32811;52.382;5.270;2022-08-21T15:04:15;6.97;;;1.08;;
47053;SDS011;32811;52.382;5.270;2022-08-21T15:06:42;5.72;;;1.90;;
47053;SDS011;32811;52.382;5.270;2022-08-21T15:09:09;3.38;;;0.90;;
47053;SDS011;32811;52.382;5.270;2022-08-21T15:11:36;5.35;;;1.02;;
47053;SDS011;32811;52.382;5.270;2022-08-21T15:14:08;6.25;;;2.08;;
47053;SDS011;32811;52.382;5.270;2022-08-21T15:16:40;5.47;;;1.13;;
47053;SDS011;32811;52.382;5.270;2022-08-21T15:19:07;6.68;;;0.93;;
47053;SDS011;32811;52.382;5.270;2022-08-21T15:21:34;3.15;;;0.65;;
47053;SDS011;32811;52.382;5.270;2022-08-21T15:24:01;5.43;;;0.93;;
47053;SDS011;32811;52.382;5.270;2022-08-21T15:26:27;9.50;;;1.60;;
47053;SDS011;32811;52.382;5.270;2022-08-21T15:28:54;6.07;;;1.00;;
47053;SDS011;32811;52.382;5.270;2022-08-21T15:31:20;5.38;;;1.35;;
47053;SDS011;32811;52.382;5.270;2022-08-21T15:33:47;5.88;;;1.60;;
47053;SDS011;32811;52.382;5.270;2022-08-21T15:36:14;5.18;;;1.67;;
47053;SDS011;32811;52.382;5.270;2022-08-21T15:38:40;3.65;;;1.10;;
47053;SDS011;32811;52.382;5.270;2022-08-21T15:41:07;6.63;;;1.20;;
47053;SDS011;32811;52.382;5.270;2022-08-21T15:43:40;7.95;;;1.15;;
47053;SDS011;32811;52.382;5.270;2022-08-21T15:46:12;4.95;;;0.90;;
47053;SDS011;32811;52.382;5.270;2022-08-21T15:48:39;7.57;;;1.83;;
47053;SDS011;32811;52.382;5.270;2022-08-21T15:51:06;7.38;;;1.50;;
47053;SDS011;32811;52.382;5.270;2022-08-21T15:53:34;4.15;;;0.85;;
47053;SDS011;32811;52.382;5.270;2022-08-21T15:56:02;3.78;;;1.00;;
47053;SDS011;32811;52.382;5.270;2022-08-21T15:58:29;6.95;;;1.25;;
47053;SDS011;32811;52.382;5.270;2022-08-21T16:00:57;6.38;;;1.67;;
47053;SDS011;32811;52.382;5.270;2022-08-21T16:03:26;4.28;;;1.17;;
47053;SDS011;32811;52.382;5.270;2022-08-21T16:05:52;6.03;;;1.50;;
47053;SDS011;32811;52.382;5.270;2022-08-21T16:08:21;5.43;;;1.10;;
47053;SDS011;32811;52.382;5.270;2022-08-21T16:10:48;7.00;;;1.27;;
47053;SDS011;32811;52.382;5.270;2022-08-21T16:13:20;8.80;;;1.23;;
47053;SDS011;32811;52.382;5.270;2022-08-21T16:15:51;3.35;;;0.90;;
47053;SDS011;32811;52.382;5.270;2022-08-21T16:18:17;6.25;;;1.55;;
47053;SDS011;32811;52.382;5.270;2022-08-21T16:20:46;5.65;;;1.20;;
47053;SDS011;32811;52.382;5.270;2022-08-21T16:23:12;4.32;;;1.20;;
47053;SDS011;32811;52.382;5.270;2022-08-21T16:25:39;3.33;;;1.00;;
47053;SDS011;32811;52.382;5.270;2022-08-21T16:28:08;3.22;;;1.23;;
47053;SDS011;32811;52.382;5.270;2022-08-21T16:30:38;5.07;;;1.20;;
47053;SDS011;32811;52.382;5.270;2022-08-21T16:33:06;5.70;;;1.20;;
47053;SDS011;32811;52.382;5.270;2022-08-21T16:35:37;4.70;;;1.08;;
47053;SDS011;32811;52.382;5.270;2022-08-21T16:38:04;11.30;;;1.65;;
47053;SDS011;32811;52.382;5.270;2022-08-21T16:40:30;7.57;;;1.95;;
47053;SDS011;32811;52.382;5.270;2022-08-21T16:42:57;5.28;;;1.30;;
47053;SDS011;32811;52.382;5.270;2022-08-21T16:45:24;3.05;;;0.93;;
47053;SDS011;32811;52.382;5.270;2022-08-21T16:47:56;3.28;;;1.20;;
47053;SDS011;32811;52.382;5.270;2022-08-21T16:50:23;3.03;;;0.90;;